createdAt,value
2019-01-14T00:00:44.754Z,99277.80
2019-01-14T00:03:12.266Z,99281.73
2019-01-14T00:05:39.870Z,99284.92
2019-01-14T00:08:07.386Z,99286.47
2019-01-14T00:10:34.897Z,99290.55
2019-01-14T00:13:02.426Z,99298.71
2019-01-14T00:15:29.967Z,99299.08
2019-01-14T00:17:57.489Z,99302.84
2019-01-14T00:20:25.014Z,99299.08
2019-01-14T00:22:52.503Z,99300.44
2019-01-14T00:25:20.023Z,99291.45
2019-01-14T00:27:47.529Z,99290.59
2019-01-14T00:30:16.346Z,99296.53
2019-01-14T00:32:43.830Z,99300.97
2019-01-14T00:35:11.334Z,99307.23
2019-01-14T00:37:38.865Z,99311.32
2019-01-14T00:40:08.239Z,99307.42
2019-01-14T00:42:35.938Z,99323.75
2019-01-14T00:45:03.503Z,99317.66
2019-01-14T00:47:31.032Z,99322.25
2019-01-14T00:49:58.566Z,99323.94
2019-01-14T00:52:26.065Z,99332.09
2019-01-14T00:54:53.577Z,99329.38
2019-01-14T00:57:21.113Z,99338.08
2019-01-14T00:59:48.600Z,99344.52
2019-01-14T01:02:16.118Z,99342.16
2019-01-14T01:04:43.654Z,99346.06
2019-01-14T01:07:11.172Z,99354.22
2019-01-14T01:09:38.687Z,99351.14
2019-01-14T01:12:06.859Z,99361.84
2019-01-14T01:14:34.394Z,99363.93
2019-01-14T01:17:01.894Z,99369.88
2019-01-14T01:19:29.494Z,99372.59
2019-01-14T01:21:57.019Z,99374.81
2019-01-14T01:24:24.541Z,99388.06
2019-01-14T01:26:52.039Z,99391.97
2019-01-14T01:29:19.759Z,99395.22
2019-01-14T01:31:47.255Z,99404.03
2019-01-14T01:34:14.763Z,99398.77
2019-01-14T01:36:42.311Z,99405.25
2019-01-14T01:39:09.875Z,99412.91
2019-01-14T01:41:37.378Z,99423.63
2019-01-14T01:44:04.919Z,99422.27
2019-01-14T01:46:32.446Z,99431.25
2019-01-14T01:48:59.936Z,99432.78
2019-01-14T01:51:27.463Z,99428.38
2019-01-14T01:53:54.987Z,99436.37
2019-01-14T01:56:22.491Z,99430.06
2019-01-14T01:58:50.020Z,99444.71
2019-01-14T02:01:17.535Z,99442.31
2019-01-14T02:03:45.049Z,99445.03
2019-01-14T02:06:12.576Z,99442.84
2019-01-14T02:08:40.097Z,99441.81
2019-01-14T02:11:07.691Z,99442.84
2019-01-14T02:13:35.191Z,99435.19
2019-01-14T02:16:02.727Z,99441.67
2019-01-14T02:18:30.227Z,99453.20
2019-01-14T02:20:57.751Z,99453.73
2019-01-14T02:23:25.271Z,99456.45
2019-01-14T02:25:52.793Z,99456.63
2019-01-14T02:28:20.319Z,99458.14
2019-01-14T02:30:47.826Z,99469.35
2019-01-14T02:33:15.319Z,99473.61
2019-01-14T02:35:43.008Z,99470.56
2019-01-14T02:38:10.515Z,99473.28
2019-01-14T02:40:38.033Z,99476.87
2019-01-14T02:43:05.559Z,99490.66
2019-01-14T02:45:33.077Z,99481.30
2019-01-14T02:48:00.564Z,99485.39
2019-01-14T02:50:28.088Z,99488.61
2019-01-14T02:52:55.593Z,99489.97
2019-01-14T02:55:23.090Z,99492.69
2019-01-14T02:57:50.613Z,99491.66
2019-01-14T03:00:19.472Z,99486.56
2019-01-14T03:02:47.002Z,99490.65
2019-01-14T03:05:14.504Z,99492.37
2019-01-14T03:07:42.035Z,99491.51
2019-01-14T03:10:10.097Z,99478.94
2019-01-14T03:12:37.630Z,99486.57
2019-01-14T03:15:06.623Z,99483.17
2019-01-14T03:17:34.124Z,99482.84
2019-01-14T03:20:01.638Z,99487.25
2019-01-14T03:22:29.146Z,99486.24
2019-01-14T03:24:58.034Z,99489.97
2019-01-14T03:27:25.735Z,99494.73
2019-01-14T03:29:53.248Z,99495.27
2019-01-14T03:32:20.797Z,99498.81
2019-01-14T03:34:48.290Z,99503.07
2019-01-14T03:37:15.800Z,99519.40
2019-01-14T03:39:43.323Z,99529.61
2019-01-14T03:42:10.845Z,99527.06
2019-01-14T03:44:38.338Z,99532.14
2019-01-14T03:47:05.849Z,99539.80
2019-01-14T03:49:33.342Z,99534.19
2019-01-14T03:52:00.872Z,99536.91
2019-01-14T03:54:28.353Z,99545.08
2019-01-14T03:56:55.897Z,99547.47
2019-01-14T03:59:23.380Z,99547.80
2019-01-14T04:01:50.892Z,99547.47
2019-01-14T04:04:18.414Z,99560.05
2019-01-14T04:06:45.930Z,99558.36
2019-01-14T04:09:13.450Z,99561.94
2019-01-14T04:11:40.952Z,99560.05
2019-01-14T04:14:08.549Z,99558.36
2019-01-14T04:16:36.057Z,99556.64
2019-01-14T04:19:03.557Z,99550.17
2019-01-14T04:21:31.074Z,99554.25
2019-01-14T04:23:58.592Z,99555.11
2019-01-14T04:26:26.112Z,99563.77
2019-01-14T04:28:53.608Z,99562.95
2019-01-14T04:31:21.116Z,99563.45
2019-01-14T04:33:48.622Z,99580.46
2019-01-14T04:36:16.149Z,99583.36
2019-01-14T04:38:43.910Z,99590.98
2019-01-14T04:41:11.446Z,99598.33
2019-01-14T04:43:38.936Z,99614.48
2019-01-14T04:46:06.423Z,99613.45
2019-01-14T04:48:33.941Z,99612.09
2019-01-14T04:51:01.478Z,99623.30
2019-01-14T04:53:28.975Z,99623.30
2019-01-14T04:55:56.508Z,99629.78
2019-01-14T04:58:24.039Z,99637.44
2019-01-14T05:00:51.571Z,99640.66
2019-01-14T05:03:19.066Z,99648.83
2019-01-14T05:05:46.556Z,99652.58
2019-01-14T05:08:14.080Z,99653.41
2019-01-14T05:10:41.578Z,99652.58
2019-01-14T05:13:09.102Z,99658.02
2019-01-14T05:15:37.076Z,99659.56
2019-01-14T05:18:04.799Z,99662.78
2019-01-14T05:20:32.288Z,99667.72
2019-01-14T05:22:59.811Z,99658.37
2019-01-14T05:25:27.318Z,99661.75
2019-01-14T05:27:54.852Z,99664.47
2019-01-14T05:30:22.426Z,99665.83
2019-01-14T05:32:49.962Z,99667.88
2019-01-14T05:35:17.472Z,99659.89
2019-01-14T05:37:44.980Z,99655.63
2019-01-14T05:40:13.765Z,99657.34
2019-01-14T05:42:41.279Z,99648.50
2019-01-14T05:45:08.779Z,99655.80
2019-01-14T05:47:36.320Z,99660.06
2019-01-14T05:50:05.512Z,99661.25
2019-01-14T05:52:33.003Z,99667.02
2019-01-14T05:55:00.523Z,99671.09
2019-01-14T05:57:28.038Z,99672.99
2019-01-14T05:59:55.561Z,99673.32
2019-01-14T06:02:23.057Z,99676.37
2019-01-14T06:04:50.778Z,99680.13
2019-01-14T06:07:18.310Z,99681.48
2019-01-14T06:09:45.812Z,99694.77
2019-01-14T06:12:13.350Z,99698.31
2019-01-14T06:14:40.881Z,99698.84
2019-01-14T06:17:08.375Z,99708.70
2019-01-14T06:19:37.043Z,99710.06
2019-01-14T06:22:04.601Z,99711.75
2019-01-14T06:24:32.087Z,99711.42
2019-01-14T06:26:59.608Z,99711.25
2019-01-14T06:29:27.131Z,99713.11
2019-01-14T06:31:54.666Z,99725.88
2019-01-14T06:34:22.388Z,99727.76
2019-01-14T06:36:49.881Z,99728.94
2019-01-14T06:39:17.402Z,99735.41
2019-01-14T06:41:44.933Z,99741.18
2019-01-14T06:44:12.431Z,99754.11
2019-01-14T06:46:39.958Z,99760.75
2019-01-14T06:49:07.465Z,99762.28
2019-01-14T06:51:34.979Z,99775.55
2019-01-14T06:54:02.521Z,99781.69
2019-01-14T06:56:30.003Z,99785.94
2019-01-14T06:58:57.542Z,99788.82
2019-01-14T07:01:25.029Z,99778.10
2019-01-14T07:03:52.715Z,99788.65
2019-01-14T07:06:20.227Z,99802.59
2019-01-14T07:08:47.767Z,99799.70
2019-01-14T07:11:15.351Z,99799.70
2019-01-14T07:13:42.866Z,99808.09
2019-01-14T07:16:10.376Z,99814.90
2019-01-14T07:18:37.911Z,99825.62
2019-01-14T07:21:05.387Z,99833.79
2019-01-14T07:23:32.901Z,99837.70
2019-01-14T07:26:00.414Z,99839.39
2019-01-14T07:28:27.938Z,99852.51
2019-01-14T07:30:55.427Z,99846.73
2019-01-14T07:33:22.967Z,99853.38
2019-01-14T07:35:50.465Z,99860.67
2019-01-14T07:38:17.992Z,99861.53
2019-01-14T07:40:45.510Z,99868.67
2019-01-14T07:43:13.041Z,99861.17
2019-01-14T07:45:40.603Z,99870.37
2019-01-14T07:48:08.123Z,99871.40
2019-01-14T07:50:35.646Z,99867.31
2019-01-14T07:53:03.145Z,99876.17
2019-01-14T07:55:30.669Z,99886.37
2019-01-14T07:57:58.160Z,99888.59
2019-01-14T08:00:25.665Z,99893.53
2019-01-14T08:02:53.201Z,99893.70
2019-01-14T08:05:20.719Z,99892.67
2019-01-14T08:07:48.234Z,99892.00
2019-01-14T08:10:15.721Z,99897.09
2019-01-14T08:12:43.223Z,99905.95
2019-01-14T08:15:12.117Z,99909.87
2019-01-14T08:17:39.703Z,99913.27
2019-01-14T08:20:08.469Z,99908.84
2019-01-14T08:22:35.972Z,99912.27
2019-01-14T08:25:03.873Z,99916.17
2019-01-14T08:27:31.395Z,99920.77
2019-01-14T08:29:58.902Z,99914.80
2019-01-14T08:32:26.413Z,99918.38
2019-01-14T08:34:53.949Z,99934.05
2019-01-14T08:37:21.461Z,99931.33
2019-01-14T08:39:48.953Z,99937.10
2019-01-14T08:42:16.849Z,99943.24
2019-01-14T08:44:44.347Z,99950.55
2019-01-14T08:47:11.867Z,99952.78
2019-01-14T08:49:39.367Z,99953.11
2019-01-14T08:52:06.923Z,99951.75
2019-01-14T08:54:34.427Z,99955.16
2019-01-14T08:57:01.941Z,99960.78
2019-01-14T08:59:29.459Z,99962.14
2019-01-14T09:01:56.938Z,99963.84
2019-01-14T09:04:24.562Z,99967.23
2019-01-14T09:06:52.136Z,99970.81
2019-01-14T09:09:19.665Z,99969.78
2019-01-14T09:11:47.172Z,99967.42
2019-01-14T09:14:14.699Z,99969.48
2019-01-14T09:16:42.218Z,99963.66
2019-01-14T09:19:09.730Z,99967.75
2019-01-14T09:21:37.257Z,99971.51
2019-01-14T09:24:04.806Z,99963.66
2019-01-14T09:26:32.331Z,99969.80
2019-01-14T09:28:59.836Z,99977.48
2019-01-14T09:31:28.154Z,99980.70
2019-01-14T09:33:55.840Z,99986.15
2019-01-14T09:36:23.328Z,99988.88
2019-01-14T09:38:50.866Z,99979.01
2019-01-14T09:41:18.384Z,99986.15
2019-01-14T09:43:45.900Z,99978.84
2019-01-14T09:46:13.417Z,99971.00
2019-01-14T09:48:40.928Z,99971.00
2019-01-14T09:51:08.446Z,99975.95
2019-01-14T09:53:35.988Z,99983.09
2019-01-14T09:56:03.480Z,99983.09
2019-01-14T09:58:31.010Z,99983.95
2019-01-14T10:00:58.510Z,99982.75
2019-01-14T10:03:26.030Z,99986.84
2019-01-14T10:05:53.523Z,99990.77
2019-01-14T10:08:21.076Z,99994.66
2019-01-14T10:10:48.575Z,99986.48
2019-01-14T10:13:16.102Z,99985.31
2019-01-14T10:15:43.633Z,99983.78
2019-01-14T10:18:11.155Z,99970.83
2019-01-14T10:20:38.704Z,99975.25
2019-01-14T10:23:06.240Z,99981.72
2019-01-14T10:25:33.746Z,99978.83
2019-01-14T10:28:01.384Z,99981.22
2019-01-14T10:30:29.020Z,99982.58
2019-01-14T10:32:56.565Z,99981.72
2019-01-14T10:35:24.187Z,99973.91
2019-01-14T10:37:51.761Z,99983.27
2019-01-14T10:40:22.159Z,99985.47
2019-01-14T10:42:49.754Z,99986.00
2019-01-14T10:45:18.526Z,99979.52
2019-01-14T10:47:46.042Z,99983.11
2019-01-14T10:50:13.578Z,99975.27
2019-01-14T10:52:41.174Z,99973.23
2019-01-14T10:55:12.483Z,99971.87
2019-01-14T10:57:38.127Z,99969.84
2019-01-14T11:00:19.559Z,99970.16
2019-01-14T11:02:48.147Z,99980.89
2019-01-14T11:05:17.524Z,99975.27
2019-01-14T11:07:45.018Z,99976.80
2019-01-14T11:10:12.528Z,99971.86
2019-01-14T11:12:40.044Z,99978.01
2019-01-14T11:15:12.161Z,99980.05
2019-01-14T11:17:39.668Z,99975.77
2019-01-14T11:20:08.817Z,99968.95
2019-01-14T11:22:36.314Z,99970.31
2019-01-14T11:25:04.919Z,99987.36
2019-01-14T11:27:32.423Z,99995.36
2019-01-14T11:29:59.954Z,100006.27
2019-01-14T11:32:27.492Z,100006.27
2019-01-14T11:34:55.073Z,100017.16
2019-01-14T11:37:22.599Z,100036.91
2019-01-14T11:39:50.103Z,100081.52
2019-01-14T11:42:17.648Z,100090.03
2019-01-14T11:44:45.134Z,100116.58
2019-01-14T11:47:12.666Z,100124.42
2019-01-14T11:49:40.262Z,100127.30
2019-01-14T11:52:07.768Z,100135.12
2019-01-14T11:54:35.278Z,100137.01
2019-01-14T11:57:02.846Z,100139.36
2019-01-14T11:59:30.374Z,100139.36
2019-01-14T12:01:57.890Z,100138.87
2019-01-14T12:04:25.387Z,100138.17
2019-01-14T12:06:52.930Z,100131.86
2019-01-14T12:09:20.423Z,100121.98
2019-01-14T12:11:47.954Z,100129.50
2019-01-14T12:14:15.506Z,100131.69
2019-01-14T12:16:43.045Z,100130.20
2019-01-14T12:19:10.586Z,100149.27
2019-01-14T12:21:38.089Z,100137.14
2019-01-14T12:24:05.592Z,100134.95
2019-01-14T12:26:33.126Z,100143.12
2019-01-14T12:29:00.629Z,100148.03
2019-01-14T12:31:28.166Z,100150.27
2019-01-14T12:33:55.676Z,100157.57
2019-01-14T12:36:23.203Z,100160.83
2019-01-14T12:38:50.714Z,100161.82
2019-01-14T12:41:18.236Z,100165.91
2019-01-14T12:43:45.742Z,100162.52
2019-01-14T12:46:13.268Z,100157.07
2019-01-14T12:48:40.770Z,100159.47
2019-01-14T12:51:08.282Z,100167.64
2019-01-14T12:53:35.808Z,100172.05
2019-01-14T12:56:03.379Z,100176.64
2019-01-14T12:58:30.906Z,100173.42
2019-01-14T13:00:58.408Z,100174.78
2019-01-14T13:03:25.924Z,100177.50
2019-01-14T13:05:53.534Z,100187.03
2019-01-14T13:08:21.062Z,100184.81
2019-01-14T13:10:48.563Z,100186.34
2019-01-14T13:13:16.094Z,100182.62
2019-01-14T13:15:43.726Z,100187.70
2019-01-14T13:18:11.292Z,100186.34
2019-01-14T13:20:38.790Z,100193.68
2019-01-14T13:23:06.340Z,100199.95
2019-01-14T13:25:33.907Z,100214.28
2019-01-14T13:28:01.436Z,100217.17
2019-01-14T13:30:29.129Z,100207.30
2019-01-14T13:32:56.679Z,100218.03
2019-01-14T13:35:24.178Z,100212.22
2019-01-14T13:37:51.765Z,100222.12
2019-01-14T13:40:19.300Z,100213.08
2019-01-14T13:42:46.824Z,100203.21
2019-01-14T13:45:15.532Z,100215.10
2019-01-14T13:47:43.026Z,100235.38
2019-01-14T13:50:14.520Z,100239.12
2019-01-14T13:52:42.016Z,100242.19
2019-01-14T13:55:09.543Z,100253.08
2019-01-14T13:57:37.059Z,100252.25
2019-01-14T14:00:06.498Z,100262.98
2019-01-14T14:02:34.012Z,100263.97
2019-01-14T14:05:01.526Z,100261.94
2019-01-14T14:07:29.035Z,100272.84
2019-01-14T14:09:56.569Z,100282.00
2019-01-14T14:12:24.069Z,100282.00
2019-01-14T14:14:51.585Z,100281.34
2019-01-14T14:17:19.141Z,100282.38
2019-01-14T14:19:46.667Z,100290.70
2019-01-14T14:22:14.203Z,100283.20
2019-01-14T14:24:41.717Z,100288.31
2019-01-14T14:27:09.230Z,100288.31
2019-01-14T14:29:36.772Z,100291.91
2019-01-14T14:32:04.359Z,100292.95
2019-01-14T14:34:31.877Z,100295.34
2019-01-14T14:36:59.391Z,100300.47
2019-01-14T14:39:26.901Z,100311.20
2019-01-14T14:41:54.419Z,100286.53
2019-01-14T14:44:21.921Z,100320.42
2019-01-14T14:46:49.471Z,100319.06
2019-01-14T14:49:16.975Z,100315.84
2019-01-14T14:51:44.469Z,100331.50
2019-01-14T14:54:11.991Z,100335.42
2019-01-14T14:56:39.537Z,100343.10
2019-01-14T14:59:07.083Z,100341.58
2019-01-14T15:01:34.585Z,100351.98
2019-01-14T15:04:02.169Z,100361.52
2019-01-14T15:06:29.683Z,100353.34
2019-01-14T15:08:57.217Z,100375.84
2019-01-14T15:11:24.729Z,100393.03
2019-01-14T15:13:52.257Z,100395.27
2019-01-14T15:16:19.777Z,100396.13
2019-01-14T15:18:47.285Z,100405.50
2019-01-14T15:21:14.794Z,100403.77
2019-01-14T15:23:42.312Z,100406.16
2019-01-14T15:26:09.825Z,100407.52
2019-01-14T15:28:37.361Z,100422.19
2019-01-14T15:31:04.879Z,100421.53
2019-01-14T15:33:32.410Z,100419.64
2019-01-14T15:35:59.933Z,100432.28
2019-01-14T15:38:27.463Z,100440.30
2019-01-14T15:40:54.977Z,100441.66
2019-01-14T15:43:22.471Z,100451.03
2019-01-14T15:45:50.013Z,100447.78
2019-01-14T15:48:17.511Z,100445.59
2019-01-14T15:50:45.023Z,100449.63
2019-01-14T15:53:12.546Z,100453.03
2019-01-14T15:55:40.134Z,100446.02
2019-01-14T15:58:07.665Z,100462.36
2019-01-14T16:00:35.170Z,100471.56
2019-01-14T16:03:02.711Z,100480.77
2019-01-14T16:05:30.205Z,100479.41
2019-01-14T16:07:57.714Z,100491.30
2019-01-14T16:10:25.269Z,100492.31
2019-01-14T16:12:52.753Z,100498.60
2019-01-14T16:15:20.315Z,100493.68
2019-01-14T16:17:47.836Z,100494.67
2019-01-14T16:20:16.390Z,100488.73
2019-01-14T16:22:43.929Z,100493.84
2019-01-14T16:25:11.441Z,100509.66
2019-01-14T16:27:38.973Z,100514.44
2019-01-14T16:30:17.221Z,100517.16
2019-01-14T16:32:44.808Z,100522.61
2019-01-14T16:35:12.503Z,100527.19
2019-01-14T16:37:40.000Z,100528.06
2019-01-14T16:40:07.546Z,100530.78
2019-01-14T16:42:35.049Z,100531.77
2019-01-14T16:45:02.612Z,100541.84
2019-01-14T16:47:30.371Z,100544.20
2019-01-14T16:49:57.867Z,100553.23
2019-01-14T16:52:25.390Z,100557.81
2019-01-14T16:54:52.908Z,100564.13
2019-01-14T16:57:20.431Z,100562.06
2019-01-14T16:59:47.942Z,100569.25
2019-01-14T17:02:15.478Z,100569.58
2019-01-14T17:04:43.006Z,100578.41
2019-01-14T17:07:11.235Z,100585.75
2019-01-14T17:09:38.840Z,100591.20
2019-01-14T17:12:06.362Z,100590.67
2019-01-14T17:14:33.920Z,100597.14
2019-01-14T17:17:01.409Z,100598.50
2019-01-14T17:19:28.944Z,100608.38
2019-01-14T17:21:56.468Z,100613.98
2019-01-14T17:24:24.046Z,100614.85
2019-01-14T17:26:51.573Z,100625.41
2019-01-14T17:29:19.071Z,100625.41
2019-01-14T17:31:46.576Z,100633.21
2019-01-14T17:34:14.098Z,100639.53
2019-01-14T17:36:41.639Z,100641.39
2019-01-14T17:39:09.148Z,100646.34
2019-01-14T17:41:37.542Z,100643.13
2019-01-14T17:44:05.047Z,100656.38
2019-01-14T17:46:32.571Z,100656.03
2019-01-14T17:49:00.090Z,100667.95
2019-01-14T17:51:27.619Z,100665.23
2019-01-14T17:53:55.168Z,100664.70
2019-01-14T17:56:22.672Z,100672.53
2019-01-14T17:58:50.202Z,100677.11
2019-01-14T18:01:17.703Z,100674.92
2019-01-14T18:03:45.224Z,100681.58
2019-01-14T18:06:12.759Z,100676.96
2019-01-14T18:08:40.292Z,100674.05
2019-01-14T18:11:07.775Z,100689.75
2019-01-14T18:13:35.312Z,100684.95
2019-01-14T18:16:02.811Z,100694.14
2019-01-14T18:18:30.321Z,100712.69
2019-01-14T18:20:57.858Z,100714.05
2019-01-14T18:23:25.370Z,100715.41
2019-01-14T18:25:53.774Z,100716.28
2019-01-14T18:28:21.300Z,100724.80
2019-01-14T18:30:48.816Z,100714.92
2019-01-14T18:33:16.371Z,100718.14
2019-01-14T18:35:43.990Z,100727.67
2019-01-14T18:38:11.505Z,100723.59
2019-01-14T18:40:39.015Z,100729.91
2019-01-14T18:43:06.522Z,100729.91
2019-01-14T18:45:34.052Z,100720.37
2019-01-14T18:48:01.535Z,100724.95
2019-01-14T18:50:29.064Z,100722.75
2019-01-14T18:52:56.574Z,100732.97
2019-01-14T18:55:24.130Z,100733.13
2019-01-14T18:57:51.672Z,100727.33
2019-01-14T19:00:19.952Z,100738.08
2019-01-14T19:02:47.499Z,100731.77
2019-01-14T19:05:15.035Z,100739.09
2019-01-14T19:07:42.558Z,100737.21
2019-01-14T19:10:11.374Z,100746.25
2019-01-14T19:12:38.901Z,100743.19
2019-01-14T19:15:08.287Z,100744.55
2019-01-14T19:17:35.798Z,100747.62
2019-01-14T19:20:04.581Z,100744.40
2019-01-14T19:22:32.109Z,100750.83
2019-01-14T19:24:59.645Z,100750.34
2019-01-14T19:27:27.149Z,100753.06
2019-01-14T19:29:54.662Z,100749.47
2019-01-14T19:32:22.170Z,100743.53
2019-01-14T19:34:49.673Z,100753.06
2019-01-14T19:37:17.183Z,100756.28
2019-01-14T19:39:44.709Z,100754.08
2019-01-14T19:42:12.243Z,100748.26
2019-01-14T19:44:39.758Z,100748.11
2019-01-14T19:47:07.290Z,100749.84
2019-01-14T19:49:34.842Z,100757.15
2019-01-14T19:52:02.371Z,100764.98
2019-01-14T19:54:29.869Z,100768.55
2019-01-14T19:56:57.424Z,100776.37
2019-01-14T19:59:24.927Z,100776.52
2019-01-14T20:01:52.435Z,100790.15
2019-01-14T20:04:19.975Z,100799.16
2019-01-14T20:06:47.481Z,100801.77
2019-01-14T20:09:15.018Z,100815.02
2019-01-14T20:11:42.531Z,100815.50
2019-01-14T20:14:10.065Z,100819.09
2019-01-14T20:16:37.604Z,100823.67
2019-01-14T20:19:05.141Z,100824.55
2019-01-14T20:21:32.641Z,100832.72
2019-01-14T20:24:00.157Z,100839.53
2019-01-14T20:26:27.690Z,100834.58
2019-01-14T20:28:55.196Z,100832.72
2019-01-14T20:31:22.729Z,100830.48
2019-01-14T20:33:50.223Z,100835.83
2019-01-14T20:36:17.749Z,100837.30
2019-01-14T20:38:45.359Z,100838.17
2019-01-14T20:41:17.588Z,100838.55
2019-01-14T20:43:42.101Z,100841.77
2019-01-14T20:46:09.621Z,100837.19
2019-01-14T20:48:37.113Z,100839.91
2019-01-14T20:51:05.672Z,100848.92
2019-01-14T20:53:33.443Z,100848.77
2019-01-14T20:56:00.960Z,100844.00
2019-01-14T20:58:28.499Z,100851.64
2019-01-14T21:00:56.078Z,100853.87
2019-01-14T21:03:23.601Z,100852.86
2019-01-14T21:05:51.293Z,100848.77
2019-01-14T21:08:18.807Z,100846.05
2019-01-14T21:10:46.313Z,100841.96
2019-01-14T21:13:13.843Z,100840.25
2019-01-14T21:15:41.383Z,100848.09
2019-01-14T21:18:08.913Z,100842.11
2019-01-14T21:20:36.435Z,100848.92
2019-01-14T21:23:03.957Z,100852.02
2019-01-14T21:25:31.493Z,100849.30
2019-01-14T21:27:59.001Z,100854.37
2019-01-14T21:30:26.529Z,100858.46
2019-01-14T21:32:54.065Z,100854.89
2019-01-14T21:35:21.561Z,100863.91
2019-01-14T21:37:49.550Z,100873.45
2019-01-14T21:40:17.077Z,100868.86
2019-01-14T21:42:44.591Z,100878.41
2019-01-14T21:45:12.801Z,100877.04
2019-01-14T21:47:40.337Z,100884.20
2019-01-14T21:50:11.908Z,100885.21
2019-01-14T21:52:39.441Z,100890.66
2019-01-14T21:55:08.537Z,100895.97
2019-01-14T21:57:36.050Z,100891.01
2019-01-14T22:00:05.917Z,100893.39
2019-01-14T22:02:33.428Z,100901.91
2019-01-14T22:05:00.939Z,100901.07
2019-01-14T22:07:28.475Z,100902.92
2019-01-14T22:09:55.995Z,100904.78
2019-01-14T22:12:23.494Z,100901.22
2019-01-14T22:14:51.026Z,100908.37
2019-01-14T22:17:18.540Z,100909.73
2019-01-14T22:19:46.042Z,100907.02
2019-01-14T22:22:13.547Z,100903.94
2019-01-14T22:24:41.083Z,100903.07
2019-01-14T22:27:08.597Z,100904.92
2019-01-14T22:29:36.103Z,100902.92
2019-01-14T22:32:03.632Z,100906.67
2019-01-14T22:34:31.141Z,100904.44
2019-01-14T22:36:58.661Z,100913.48
2019-01-14T22:39:26.169Z,100916.20
2019-01-14T22:41:53.709Z,100910.75
2019-01-14T22:44:21.221Z,100915.67
2019-01-14T22:46:48.760Z,100917.04
2019-01-14T22:49:16.250Z,100919.91
2019-01-14T22:51:43.787Z,100925.73
2019-01-14T22:54:11.283Z,100929.83
2019-01-14T22:56:38.800Z,100927.10
2019-01-14T22:59:06.385Z,100929.94
2019-01-14T23:01:34.508Z,100933.53
2019-01-14T23:04:02.118Z,100938.12
2019-01-14T23:06:29.629Z,100943.56
2019-01-14T23:08:57.153Z,100948.17
2019-01-14T23:11:24.654Z,100944.23
2019-01-14T23:13:52.167Z,100955.97
2019-01-14T23:16:19.683Z,100957.72
2019-01-14T23:18:47.212Z,100954.61
2019-01-14T23:21:14.738Z,100957.33
2019-01-14T23:23:42.237Z,100959.22
2019-01-14T23:26:09.744Z,100965.50
2019-01-14T23:28:37.267Z,100968.23
2019-01-14T23:31:04.798Z,100981.02
2019-01-14T23:33:32.333Z,100982.87
2019-01-14T23:35:59.850Z,100980.15
2019-01-14T23:38:27.343Z,100981.52
2019-01-14T23:40:54.883Z,100981.86
2019-01-14T23:43:22.557Z,100984.23
2019-01-14T23:45:50.100Z,100986.95
2019-01-14T23:48:17.603Z,100989.34
2019-01-14T23:50:45.106Z,100993.91
2019-01-14T23:53:12.646Z,101002.95
2019-01-14T23:55:40.171Z,100995.77
2019-01-14T23:58:07.672Z,101002.72
